createdAt,value
2023-04-26T00:01:27.568Z,101985.41
2023-04-26T00:03:56.349Z,102006.69
2023-04-26T00:06:23.242Z,101994.38
2023-04-26T00:08:49.775Z,102005.44
2023-04-26T00:11:16.338Z,102001.28
2023-04-26T00:13:42.767Z,101963.34
2023-04-26T00:16:09.238Z,101977.97
2023-04-26T00:18:35.780Z,101999.41
2023-04-26T00:21:02.728Z,101959.97
2023-04-26T00:23:29.190Z,101977.94
2023-04-26T00:25:57.113Z,101948.91
2023-04-26T00:28:23.609Z,101958.59
2023-04-26T00:30:52.841Z,101999.91
2023-04-26T00:33:19.221Z,101994.09
2023-04-26T00:35:45.644Z,101997.56
2023-04-26T00:38:12.116Z,101994.25
2023-04-26T00:40:38.586Z,101991.78
2023-04-26T00:43:06.682Z,102000.13
2023-04-26T00:45:33.597Z,101986.53
2023-04-26T00:48:01.987Z,102001.22
2023-04-26T00:50:29.713Z,101979.25
2023-04-26T00:52:57.527Z,101992.84
2023-04-26T00:55:24.625Z,101976.97
2023-04-26T00:57:51.044Z,101977.88
2023-04-26T01:00:17.778Z,101965.44
2023-04-26T01:02:44.619Z,101989.84
2023-04-26T01:05:11.457Z,101963.81
2023-04-26T01:07:40.985Z,101995.84
2023-04-26T01:10:09.458Z,101975.00
2023-04-26T01:12:36.861Z,101996.94
2023-04-26T01:15:03.727Z,101976.66
2023-04-26T01:17:30.445Z,101978.50
2023-04-26T01:19:57.208Z,101990.34
2023-04-26T01:22:23.667Z,101984.34
2023-04-26T01:24:51.510Z,101989.56
2023-04-26T01:27:18.098Z,101988.22
2023-04-26T01:29:44.561Z,101983.22
2023-04-26T01:32:11.981Z,101982.47
2023-04-26T01:34:38.543Z,101992.72
2023-04-26T01:37:05.001Z,102001.28
2023-04-26T01:39:31.407Z,102000.53
2023-04-26T01:42:00.844Z,101984.56
2023-04-26T01:44:27.238Z,101994.97
2023-04-26T01:46:53.644Z,102003.53
2023-04-26T01:49:20.253Z,101988.69
2023-04-26T01:51:46.679Z,101981.44
2023-04-26T01:54:13.133Z,101988.94
2023-04-26T01:56:39.550Z,101968.56
2023-04-26T01:59:05.994Z,101973.13
2023-04-26T02:01:32.547Z,101981.88
2023-04-26T02:03:59.046Z,101934.31
2023-04-26T02:06:26.458Z,101986.97
2023-04-26T02:08:53.691Z,101987.09
2023-04-26T02:11:20.320Z,101966.91
2023-04-26T02:13:46.752Z,101971.00
2023-04-26T02:16:16.034Z,101992.41
2023-04-26T02:18:42.628Z,101981.13
2023-04-26T02:21:09.309Z,101967.81
2023-04-26T02:23:35.866Z,101961.97
2023-04-26T02:26:03.230Z,101988.66
2023-04-26T02:28:29.859Z,101987.09
2023-04-26T02:30:56.774Z,101985.47
2023-04-26T02:33:23.410Z,101998.94
2023-04-26T02:35:50.088Z,101977.88
2023-04-26T02:38:17.378Z,101959.34
2023-04-26T02:40:43.915Z,101982.34
2023-04-26T02:43:10.432Z,101985.25
2023-04-26T02:45:43.502Z,101969.25
2023-04-26T02:48:09.915Z,101991.31
2023-04-26T02:50:36.429Z,101976.94
2023-04-26T02:53:03.598Z,101979.34
2023-04-26T02:55:30.085Z,101980.88
2023-04-26T02:57:56.520Z,101992.78
2023-04-26T03:00:23.612Z,101967.34
2023-04-26T03:02:50.211Z,101970.66
2023-04-26T03:05:16.665Z,101971.59
2023-04-26T03:07:43.077Z,101957.19
2023-04-26T03:10:10.104Z,101959.75
2023-04-26T03:12:36.694Z,101962.41
2023-04-26T03:15:04.030Z,101957.50
2023-04-26T03:17:30.573Z,101974.47
2023-04-26T03:19:57.169Z,101971.81
2023-04-26T03:22:23.601Z,101966.97
2023-04-26T03:24:50.038Z,101983.44
2023-04-26T03:27:16.670Z,101947.41
2023-04-26T03:29:44.219Z,101955.09
2023-04-26T03:32:11.122Z,101957.38
2023-04-26T03:34:37.736Z,101958.16
2023-04-26T03:37:04.160Z,101977.69
2023-04-26T03:39:30.602Z,101960.63
2023-04-26T03:41:57.025Z,101949.69
2023-04-26T03:44:23.463Z,101951.41
2023-04-26T03:46:49.868Z,101973.53
2023-04-26T03:49:16.350Z,101964.09
2023-04-26T03:51:42.832Z,101956.47
2023-04-26T03:54:09.209Z,101934.72
2023-04-26T03:56:36.691Z,101968.53
2023-04-26T03:59:03.142Z,101980.44
2023-04-26T04:01:29.530Z,101986.50
2023-04-26T04:03:56.575Z,101983.22
2023-04-26T04:06:23.223Z,101976.72
2023-04-26T04:08:49.867Z,101969.91
2023-04-26T04:11:16.871Z,101926.97
2023-04-26T04:13:43.381Z,101981.88
2023-04-26T04:16:10.475Z,101956.44
2023-04-26T04:18:37.210Z,101960.72
2023-04-26T04:21:03.777Z,101956.34
2023-04-26T04:23:30.185Z,101973.63
2023-04-26T04:25:56.607Z,101962.56
2023-04-26T04:28:23.840Z,101974.06
2023-04-26T04:30:50.862Z,101962.28
2023-04-26T04:33:17.871Z,101959.75
2023-04-26T04:35:44.761Z,101931.84
2023-04-26T04:38:11.155Z,101965.31
2023-04-26T04:40:37.605Z,101963.63
2023-04-26T04:43:04.054Z,101977.94
2023-04-26T04:45:30.445Z,101968.72
2023-04-26T04:47:57.060Z,101956.66
2023-04-26T04:50:23.548Z,101941.50
2023-04-26T04:52:50.062Z,101959.28
2023-04-26T04:55:16.782Z,101982.22
2023-04-26T04:57:43.329Z,101971.78
2023-04-26T05:00:10.727Z,101985.13
2023-04-26T05:02:37.581Z,101988.22
2023-04-26T05:05:05.346Z,101989.13
2023-04-26T05:07:32.620Z,101982.38
2023-04-26T05:10:00.077Z,101970.16
2023-04-26T05:12:26.747Z,101975.94
2023-04-26T05:14:53.321Z,101975.69
2023-04-26T05:17:20.166Z,101981.41
2023-04-26T05:19:47.245Z,101982.84
2023-04-26T05:22:18.687Z,101988.19
2023-04-26T05:24:48.691Z,101977.66
2023-04-26T05:27:15.637Z,101994.81
2023-04-26T05:29:42.182Z,101995.94
2023-04-26T05:32:08.923Z,101980.19
2023-04-26T05:34:36.606Z,102001.72
2023-04-26T05:37:03.597Z,102000.50
2023-04-26T05:39:30.632Z,101997.63
2023-04-26T05:41:57.177Z,101984.63
2023-04-26T05:44:23.615Z,101984.06
2023-04-26T05:46:50.142Z,101974.28
2023-04-26T05:49:16.567Z,101992.81
2023-04-26T05:51:43.257Z,101969.41
2023-04-26T05:54:09.721Z,101971.16
2023-04-26T05:56:36.161Z,101968.72
2023-04-26T05:59:02.601Z,101966.78
2023-04-26T06:01:29.048Z,101989.38
2023-04-26T06:03:59.100Z,101992.75
2023-04-26T06:06:28.405Z,101996.31
2023-04-26T06:08:55.494Z,101985.16
2023-04-26T06:11:21.967Z,101978.75
2023-04-26T06:13:48.532Z,101965.03
2023-04-26T06:16:15.419Z,101961.19
2023-04-26T06:18:42.301Z,101942.81
2023-04-26T06:21:08.793Z,101984.44
2023-04-26T06:23:35.196Z,101990.97
2023-04-26T06:26:01.630Z,101996.94
2023-04-26T06:28:28.020Z,101998.09
2023-04-26T06:30:54.459Z,101992.75
2023-04-26T06:33:20.953Z,101988.69
2023-04-26T06:35:47.336Z,102015.59
2023-04-26T06:38:13.833Z,102027.19
2023-04-26T06:40:40.345Z,102000.69
2023-04-26T06:43:06.796Z,102027.06
2023-04-26T06:45:33.351Z,102004.19
2023-04-26T06:48:04.712Z,102015.78
2023-04-26T06:50:31.373Z,102015.78
2023-04-26T06:52:58.104Z,102012.81
2023-04-26T06:55:24.871Z,102007.75
2023-04-26T06:57:51.401Z,102017.66
2023-04-26T07:00:18.269Z,102020.47
2023-04-26T07:02:44.940Z,102011.22
2023-04-26T07:05:11.656Z,102017.28
2023-04-26T07:07:38.204Z,102003.22
2023-04-26T07:10:05.027Z,102032.09
2023-04-26T07:12:31.562Z,102035.28
2023-04-26T07:14:58.049Z,102022.16
2023-04-26T07:17:24.529Z,101986.34
2023-04-26T07:19:50.965Z,102023.00
2023-04-26T07:22:17.358Z,102024.69
2023-04-26T07:24:43.795Z,102026.00
2023-04-26T07:27:10.528Z,102007.41
2023-04-26T07:29:36.991Z,101975.97
2023-04-26T07:32:03.786Z,102006.31
2023-04-26T07:34:30.280Z,102008.66
2023-04-26T07:36:56.733Z,102032.34
2023-04-26T07:39:23.401Z,102026.09
2023-04-26T07:41:50.009Z,102031.53
2023-04-26T07:44:16.420Z,102025.38
2023-04-26T07:46:42.811Z,102042.72
2023-04-26T07:49:09.590Z,102025.03
2023-04-26T07:51:36.908Z,102016.47
2023-04-26T07:54:03.396Z,102048.31
2023-04-26T07:56:29.828Z,102038.03
2023-04-26T07:58:56.328Z,102055.28
2023-04-26T08:01:22.791Z,102054.69
2023-04-26T08:03:49.636Z,102041.28
2023-04-26T08:06:16.782Z,102040.72
2023-04-26T08:08:49.162Z,102053.03
2023-04-26T08:11:15.789Z,102048.91
2023-04-26T08:13:44.078Z,102057.81
2023-04-26T08:16:11.014Z,102033.09
2023-04-26T08:18:37.472Z,102043.13
2023-04-26T08:21:04.112Z,102044.16
2023-04-26T08:23:36.497Z,102044.63
2023-04-26T08:26:03.170Z,102046.72
2023-04-26T08:28:29.740Z,102033.59
2023-04-26T08:30:56.235Z,102051.31
2023-04-26T08:33:22.922Z,102049.63
2023-04-26T08:35:49.366Z,102044.66
2023-04-26T08:38:15.774Z,102051.16
2023-04-26T08:40:46.708Z,102031.25
2023-04-26T08:43:15.428Z,102017.28
2023-04-26T08:45:47.568Z,102020.28
2023-04-26T08:48:16.175Z,102039.91
2023-04-26T08:50:47.901Z,102005.75
2023-04-26T08:53:17.672Z,102031.16
2023-04-26T08:55:51.229Z,101986.84
2023-04-26T08:58:18.868Z,102033.41
2023-04-26T09:00:46.356Z,102050.13
2023-04-26T09:03:13.637Z,102044.09
2023-04-26T09:05:43.929Z,102031.09
2023-04-26T09:08:16.221Z,102026.47
2023-04-26T09:10:42.798Z,101997.09
2023-04-26T09:13:09.422Z,102019.53
2023-04-26T09:15:35.916Z,102036.75
2023-04-26T09:18:22.763Z,102032.66
2023-04-26T09:21:09.013Z,102005.25
2023-04-26T09:23:35.696Z,102025.88
2023-04-26T09:26:21.567Z,102025.78
2023-04-26T09:28:48.693Z,102036.94
2023-04-26T09:31:39.016Z,102045.31
2023-04-26T09:34:05.821Z,102030.91
2023-04-26T09:36:32.397Z,102028.25
2023-04-26T09:38:59.098Z,102030.25
2023-04-26T09:41:42.671Z,102053.03
2023-04-26T09:44:23.690Z,102035.78
2023-04-26T09:47:02.363Z,102056.38
2023-04-26T09:49:31.604Z,102062.94
2023-04-26T09:52:05.457Z,102049.34
2023-04-26T09:54:49.534Z,102042.09
2023-04-26T09:57:17.598Z,102042.84
2023-04-26T09:59:49.287Z,102036.81
2023-04-26T10:02:16.139Z,102042.88
2023-04-26T10:04:49.556Z,102034.19
2023-04-26T10:07:18.394Z,102027.16
2023-04-26T10:09:46.628Z,102038.91
2023-04-26T10:12:16.158Z,102025.00
2023-04-26T10:14:44.342Z,102039.22
2023-04-26T10:17:14.093Z,102031.84
2023-04-26T10:19:46.455Z,102031.97
2023-04-26T10:22:25.508Z,102026.25
2023-04-26T10:24:54.255Z,101996.50
2023-04-26T10:27:45.494Z,102037.81
2023-04-26T10:30:14.013Z,102023.53
2023-04-26T10:32:55.930Z,102036.25
2023-04-26T10:35:27.731Z,101997.41
2023-04-26T10:38:12.459Z,102034.03
2023-04-26T10:40:40.827Z,101975.81
2023-04-26T10:43:16.307Z,102032.03
2023-04-26T10:45:47.615Z,102030.97
2023-04-26T10:48:22.543Z,102035.06
2023-04-26T10:51:13.272Z,102032.81
2023-04-26T10:53:45.773Z,102027.22
2023-04-26T10:56:32.483Z,102024.38
2023-04-26T11:01:42.227Z,102030.31
2023-04-26T11:04:12.836Z,102034.06
2023-04-26T11:06:52.486Z,102030.69
2023-04-26T11:09:37.109Z,102012.41
2023-04-26T11:12:07.802Z,102010.25
2023-04-26T11:14:35.470Z,102018.41
2023-04-26T11:17:06.354Z,102010.84
2023-04-26T11:19:33.178Z,102010.78
2023-04-26T11:22:06.456Z,101999.16
2023-04-26T11:24:36.788Z,101996.34
2023-04-26T11:27:09.270Z,101973.13
2023-04-26T11:29:35.948Z,102003.13
2023-04-26T11:32:02.461Z,101991.69
2023-04-26T11:34:35.981Z,102003.78
2023-04-26T11:37:04.852Z,102007.28
2023-04-26T11:39:32.606Z,101976.75
2023-04-26T11:42:10.096Z,102004.19
2023-04-26T11:44:37.926Z,102002.00
2023-04-26T11:47:06.422Z,101987.00
2023-04-26T11:49:34.150Z,101999.94
2023-04-26T11:52:01.651Z,102003.34
2023-04-26T11:54:33.326Z,102006.41
2023-04-26T11:57:01.017Z,101996.19
2023-04-26T11:59:29.176Z,101981.28
2023-04-26T12:01:58.187Z,101999.06
2023-04-26T12:04:30.290Z,101993.22
2023-04-26T12:06:58.393Z,101995.81
2023-04-26T12:09:28.023Z,101997.31
2023-04-26T12:12:02.390Z,101993.44
2023-04-26T12:14:39.723Z,102011.91
2023-04-26T12:17:07.545Z,102000.41
2023-04-26T12:19:37.930Z,102002.38
2023-04-26T12:22:06.001Z,102018.41
2023-04-26T12:24:34.658Z,102017.72
2023-04-26T12:27:02.884Z,102022.91
2023-04-26T12:29:32.523Z,102018.91
2023-04-26T12:32:00.307Z,101996.22
2023-04-26T12:34:26.767Z,102017.66
2023-04-26T12:36:53.400Z,102016.63
2023-04-26T12:39:19.789Z,102009.78
2023-04-26T12:41:46.572Z,102021.25
2023-04-26T12:44:14.467Z,102015.47
2023-04-26T12:46:41.227Z,102008.16
2023-04-26T12:49:07.898Z,102010.13
2023-04-26T12:51:34.352Z,102016.75
2023-04-26T12:54:00.809Z,102022.31
2023-04-26T12:56:27.451Z,102013.28
2023-04-26T12:58:54.113Z,102020.31
2023-04-26T13:01:20.855Z,102014.94
2023-04-26T13:03:47.486Z,102005.19
2023-04-26T13:06:14.131Z,102019.94
2023-04-26T13:08:41.620Z,102027.84
2023-04-26T13:11:08.040Z,102020.13
2023-04-26T13:13:43.103Z,102017.53
2023-04-26T13:16:12.616Z,102012.81
2023-04-26T13:18:39.722Z,102020.44
2023-04-26T13:21:06.323Z,101999.09
2023-04-26T13:23:32.797Z,102009.38
2023-04-26T13:25:59.202Z,101997.88
2023-04-26T13:28:25.669Z,102012.75
2023-04-26T13:30:52.506Z,101985.63
2023-04-26T13:33:21.347Z,102002.88
2023-04-26T13:35:48.206Z,102007.78
2023-04-26T13:38:15.720Z,102009.00
2023-04-26T13:40:42.637Z,101988.91
2023-04-26T13:43:09.058Z,102021.47
2023-04-26T13:45:36.797Z,102004.91
2023-04-26T13:48:03.566Z,101983.50
2023-04-26T13:50:30.141Z,102022.75
2023-04-26T13:52:56.761Z,101978.88
2023-04-26T13:55:23.416Z,102007.72
2023-04-26T13:57:49.929Z,101998.09
2023-04-26T14:00:16.966Z,102019.72
2023-04-26T14:02:43.649Z,102000.16
2023-04-26T14:05:10.413Z,102001.81
2023-04-26T14:07:36.992Z,101993.88
2023-04-26T14:10:03.695Z,101999.88
2023-04-26T14:12:30.187Z,102005.88
2023-04-26T14:14:56.691Z,102003.16
2023-04-26T14:17:23.147Z,102003.44
2023-04-26T14:19:49.639Z,101993.50
2023-04-26T14:22:17.620Z,102016.88
2023-04-26T14:24:44.160Z,101991.09
2023-04-26T14:27:10.596Z,102023.47
2023-04-26T14:29:37.049Z,102023.94
2023-04-26T14:32:03.545Z,102014.72
2023-04-26T14:34:30.026Z,102024.59
2023-04-26T14:37:01.396Z,102016.66
2023-04-26T14:39:28.057Z,102007.34
2023-04-26T14:41:56.262Z,102010.97
2023-04-26T14:44:23.675Z,102020.84
2023-04-26T14:46:50.229Z,101997.28
2023-04-26T14:49:16.760Z,102018.53
2023-04-26T14:51:43.218Z,102006.63
2023-04-26T14:54:09.621Z,101995.03
2023-04-26T14:56:36.604Z,102015.00
2023-04-26T14:59:03.949Z,101996.31
2023-04-26T15:01:31.276Z,101999.13
2023-04-26T15:04:00.285Z,101993.84
2023-04-26T15:06:27.707Z,102000.44
2023-04-26T15:08:54.103Z,101989.16
2023-04-26T15:11:21.034Z,102011.91
2023-04-26T15:13:47.601Z,101985.66
2023-04-26T15:16:14.068Z,101998.81
2023-04-26T15:18:40.469Z,101993.31
2023-04-26T15:21:06.859Z,102007.72
2023-04-26T15:23:33.294Z,102002.91
2023-04-26T15:26:03.428Z,101995.81
2023-04-26T15:28:30.307Z,102002.50
2023-04-26T15:31:08.877Z,101998.72
2023-04-26T15:33:35.436Z,102014.31
2023-04-26T15:36:01.822Z,102013.13
2023-04-26T15:38:28.211Z,102012.63
2023-04-26T15:40:54.905Z,102002.88
2023-04-26T15:43:22.025Z,102013.91
2023-04-26T15:45:49.564Z,102001.47
2023-04-26T15:48:16.156Z,102006.59
2023-04-26T15:50:42.590Z,101997.50
2023-04-26T15:53:09.232Z,102000.13
2023-04-26T15:55:35.839Z,101991.44
2023-04-26T15:58:02.296Z,101991.84
2023-04-26T16:00:29.681Z,101995.38
2023-04-26T16:02:56.774Z,101995.66
2023-04-26T16:05:23.340Z,102001.88
2023-04-26T16:07:49.754Z,102011.50
2023-04-26T16:10:16.352Z,101988.81
2023-04-26T16:12:44.450Z,102003.97
2023-04-26T16:15:11.539Z,102006.38
2023-04-26T16:17:39.238Z,101993.03
2023-04-26T16:20:07.184Z,102011.28
2023-04-26T16:22:34.512Z,102008.88
2023-04-26T16:25:01.799Z,102002.16
2023-04-26T16:27:28.358Z,101993.88
2023-04-26T16:29:54.799Z,101988.59
2023-04-26T16:32:22.282Z,102007.69
2023-04-26T16:34:48.785Z,101994.47
2023-04-26T16:37:15.238Z,101997.84
2023-04-26T16:39:41.726Z,101997.94
2023-04-26T16:42:08.143Z,101986.88
2023-04-26T16:44:34.568Z,102019.84
2023-04-26T16:47:01.816Z,101998.63
2023-04-26T16:49:28.273Z,102009.81
2023-04-26T16:51:58.763Z,101985.88
2023-04-26T16:54:26.363Z,101998.94
2023-04-26T16:56:56.154Z,102021.22
2023-04-26T16:59:22.683Z,102006.25
2023-04-26T17:01:49.152Z,102020.06
2023-04-26T17:04:15.909Z,102021.75
2023-04-26T17:06:44.324Z,102029.59
2023-04-26T17:09:11.236Z,102010.19
2023-04-26T17:11:41.582Z,102025.06
2023-04-26T17:14:08.019Z,102017.50
2023-04-26T17:16:34.518Z,102018.22
2023-04-26T17:19:00.971Z,102012.75
2023-04-26T17:21:27.371Z,102020.97
2023-04-26T17:23:53.806Z,101988.13
2023-04-26T17:26:21.653Z,102021.91
2023-04-26T17:28:48.068Z,102026.25
2023-04-26T17:31:14.530Z,102027.09
2023-04-26T17:33:43.041Z,102019.72
2023-04-26T17:36:09.454Z,102026.50
2023-04-26T17:38:36.040Z,102038.66
2023-04-26T17:41:02.490Z,102017.94
2023-04-26T17:43:28.943Z,102018.03
2023-04-26T17:45:55.853Z,102018.66
2023-04-26T17:48:22.315Z,102035.31
2023-04-26T17:50:49.041Z,102031.47
2023-04-26T17:53:16.051Z,102021.25
2023-04-26T17:55:42.748Z,102028.41
2023-04-26T17:58:09.221Z,102031.88
2023-04-26T18:00:35.643Z,102036.00
2023-04-26T18:03:05.095Z,102036.41
2023-04-26T18:05:31.851Z,102003.22
2023-04-26T18:07:58.888Z,102039.88
2023-04-26T18:10:25.468Z,102052.72
2023-04-26T18:12:51.880Z,102049.34
2023-04-26T18:15:18.741Z,102048.38
2023-04-26T18:17:45.257Z,102052.34
2023-04-26T18:20:13.231Z,102061.44
2023-04-26T18:22:40.081Z,102063.72
2023-04-26T18:25:07.196Z,102063.09
2023-04-26T18:27:33.718Z,102062.13
2023-04-26T18:30:00.374Z,102065.25
2023-04-26T18:32:26.828Z,102061.03
2023-04-26T18:34:53.288Z,102060.00
2023-04-26T18:37:20.171Z,102060.22
2023-04-26T18:39:46.623Z,102055.16
2023-04-26T18:42:13.071Z,102064.44
2023-04-26T18:44:39.531Z,102056.44
2023-04-26T18:47:06.104Z,102072.66
2023-04-26T18:49:32.641Z,102073.81
2023-04-26T18:51:59.150Z,102053.88
2023-04-26T18:54:26.322Z,102056.69
2023-04-26T18:56:52.815Z,102070.75
2023-04-26T18:59:19.399Z,102059.94
2023-04-26T19:01:45.874Z,102074.44
2023-04-26T19:04:12.465Z,102066.41
2023-04-26T19:06:41.404Z,102073.16
2023-04-26T19:09:11.483Z,102073.25
2023-04-26T19:11:38.017Z,102067.25
2023-04-26T19:14:04.433Z,102031.84
2023-04-26T19:16:30.947Z,102055.84
2023-04-26T19:18:58.145Z,102056.88
2023-04-26T19:21:24.654Z,102073.94
2023-04-26T19:23:51.297Z,102078.09
2023-04-26T19:26:18.013Z,102081.66
2023-04-26T19:28:44.501Z,102083.75
2023-04-26T19:31:11.044Z,102075.97
2023-04-26T19:33:38.228Z,102094.25
2023-04-26T19:36:04.798Z,102087.19
2023-04-26T19:38:31.441Z,102096.25
2023-04-26T19:40:57.869Z,102091.88
2023-04-26T19:43:24.361Z,102097.53
2023-04-26T19:45:50.796Z,102099.06
2023-04-26T19:48:17.320Z,102095.75
2023-04-26T19:50:46.676Z,102095.31
2023-04-26T19:53:14.558Z,102101.69
2023-04-26T19:55:42.396Z,102091.00
2023-04-26T19:58:10.687Z,102098.03
2023-04-26T20:00:38.575Z,102082.84
2023-04-26T20:03:05.602Z,102104.50
2023-04-26T20:05:32.551Z,102112.28
2023-04-26T20:07:59.029Z,102078.91
2023-04-26T20:10:25.710Z,102093.50
2023-04-26T20:12:53.119Z,102062.47
2023-04-26T20:15:19.605Z,102104.50
2023-04-26T20:17:46.022Z,102113.41
2023-04-26T20:20:13.392Z,102093.22
2023-04-26T20:22:40.466Z,102116.56
2023-04-26T20:25:07.371Z,102118.28
2023-04-26T20:27:34.440Z,102103.94
2023-04-26T20:30:01.247Z,102114.06
2023-04-26T20:32:27.899Z,102111.53
2023-04-26T20:34:54.368Z,102108.34
2023-04-26T20:37:21.595Z,102114.69
2023-04-26T20:39:47.988Z,102106.00
2023-04-26T20:42:14.397Z,102105.16
2023-04-26T20:44:40.850Z,102105.22
2023-04-26T20:47:07.818Z,102119.03
2023-04-26T20:49:34.246Z,102108.03
2023-04-26T20:52:00.986Z,102113.19
2023-04-26T20:54:27.413Z,102115.94
2023-04-26T20:56:53.874Z,102106.91
2023-04-26T20:59:20.310Z,102120.78
2023-04-26T21:01:46.904Z,102116.56
2023-04-26T21:04:13.529Z,102083.75
2023-04-26T21:06:40.104Z,102094.06
2023-04-26T21:09:07.098Z,102125.69
2023-04-26T21:11:33.795Z,102098.66
2023-04-26T21:14:00.947Z,102027.06
2023-04-26T21:16:27.421Z,102110.84
2023-04-26T21:18:53.875Z,102113.16
2023-04-26T21:21:20.407Z,102130.59
2023-04-26T21:23:46.966Z,102118.34
2023-04-26T21:26:13.473Z,102103.22
2023-04-26T21:28:39.973Z,102131.56
2023-04-26T21:31:07.549Z,102125.13
2023-04-26T21:33:34.369Z,102120.22
2023-04-26T21:36:00.897Z,102131.47
2023-04-26T21:38:27.355Z,102085.00
2023-04-26T21:40:53.788Z,102113.66
2023-04-26T21:43:21.605Z,102108.94
2023-04-26T21:45:50.090Z,102091.53
2023-04-26T21:48:16.596Z,102110.25
2023-04-26T21:50:43.171Z,102131.66
2023-04-26T21:53:09.571Z,102116.56
2023-04-26T21:55:35.976Z,102127.84
2023-04-26T21:58:02.379Z,102068.09
2023-04-26T22:00:28.788Z,102066.59
2023-04-26T22:02:55.518Z,102080.44
2023-04-26T22:05:22.269Z,102092.44
2023-04-26T22:07:48.727Z,102107.03
2023-04-26T22:10:16.398Z,102101.56
2023-04-26T22:12:43.161Z,102132.06
2023-04-26T22:15:09.947Z,102117.72
2023-04-26T22:17:36.478Z,102122.84
2023-04-26T22:20:03.681Z,102129.00
2023-04-26T22:22:30.198Z,102131.81
2023-04-26T22:24:56.746Z,102123.25
2023-04-26T22:27:23.227Z,102097.88
2023-04-26T22:29:49.736Z,102131.88
2023-04-26T22:32:16.257Z,102130.59
2023-04-26T22:34:43.941Z,102125.53
2023-04-26T22:37:20.278Z,102116.47
2023-04-26T22:39:49.130Z,102130.31
2023-04-26T22:42:15.667Z,102132.72
2023-04-26T22:44:42.173Z,102124.91
2023-04-26T22:47:08.598Z,102123.03
2023-04-26T22:49:35.011Z,102133.66
2023-04-26T22:52:07.726Z,102128.66
2023-04-26T22:54:38.352Z,102117.75
2023-04-26T22:57:05.601Z,102142.75
2023-04-26T22:59:34.221Z,102128.16
2023-04-26T23:02:01.670Z,102141.91
2023-04-26T23:04:28.207Z,102150.63
2023-04-26T23:06:54.773Z,102138.06
2023-04-26T23:09:21.363Z,102150.16
2023-04-26T23:11:47.946Z,102137.63
2023-04-26T23:14:15.743Z,102150.16
2023-04-26T23:16:42.533Z,102147.53
2023-04-26T23:19:09.582Z,102156.00
2023-04-26T23:21:36.246Z,102136.78
2023-04-26T23:24:03.038Z,102132.78
2023-04-26T23:26:29.501Z,102150.16
2023-04-26T23:28:55.987Z,102154.47
2023-04-26T23:31:22.431Z,102159.84
2023-04-26T23:33:48.873Z,102160.84
2023-04-26T23:36:15.279Z,102114.56
2023-04-26T23:38:41.843Z,102167.09
2023-04-26T23:41:08.403Z,102148.25
2023-04-26T23:43:34.822Z,102153.25
2023-04-26T23:46:01.385Z,102155.94
2023-04-26T23:48:27.869Z,102152.84
2023-04-26T23:50:54.377Z,102154.63
2023-04-26T23:53:20.906Z,102183.63
2023-04-26T23:55:47.393Z,102165.06
2023-04-26T23:58:13.848Z,102183.25
